sensor_id;sensor_type;location;lat;lon;timestamp;pressure;altitude;pressure_sealevel;temperature;humidity
43701;BME280;58809;47.984;7.964;2023-04-01T00:02:53;96175.06;;;13.35;60.88
43701;BME280;58809;47.984;7.964;2023-04-01T00:05:55;96178.03;;;13.08;61.85
43701;BME280;58809;47.984;7.964;2023-04-01T00:08:57;96169.59;;;12.93;62.87
43701;BME280;58809;47.984;7.964;2023-04-01T00:11:59;96177.50;;;12.81;63.92
43701;BME280;58809;47.984;7.964;2023-04-01T00:15:01;96162.50;;;12.49;64.73
43701;BME280;58809;47.984;7.964;2023-04-01T00:18:03;96160.72;;;12.62;65.20
43701;BME280;58809;47.984;7.964;2023-04-01T00:21:04;96159.84;;;12.49;65.21
43701;BME280;58809;47.984;7.964;2023-04-01T00:24:06;96141.28;;;12.86;65.33
43701;BME280;58809;47.984;7.964;2023-04-01T00:27:08;96141.50;;;12.85;65.54
43701;BME280;58809;47.984;7.964;2023-04-01T00:30:10;96123.81;;;12.97;65.64
43701;BME280;58809;47.984;7.964;2023-04-01T00:33:12;96131.66;;;13.04;65.47
43701;BME280;58809;47.984;7.964;2023-04-01T00:36:19;96121.78;;;13.11;64.59
43701;BME280;58809;47.984;7.964;2023-04-01T00:39:22;96139.41;;;13.05;65.18
43701;BME280;58809;47.984;7.964;2023-04-01T00:42:24;96134.13;;;13.05;65.11
43701;BME280;58809;47.984;7.964;2023-04-01T00:45:33;96116.25;;;13.13;64.88
43701;BME280;58809;47.984;7.964;2023-04-01T00:48:39;96133.59;;;13.34;64.13
43701;BME280;58809;47.984;7.964;2023-04-01T00:51:45;96130.19;;;13.26;64.77
43701;BME280;58809;47.984;7.964;2023-04-01T00:54:54;96136.25;;;13.15;64.91
43701;BME280;58809;47.984;7.964;2023-04-01T00:57:58;96115.88;;;13.09;64.82
43701;BME280;58809;47.984;7.964;2023-04-01T01:01:01;96131.91;;;13.21;64.64
43701;BME280;58809;47.984;7.964;2023-04-01T01:04:03;96118.63;;;13.21;64.30
43701;BME280;58809;47.984;7.964;2023-04-01T01:07:32;96106.06;;;13.28;63.82
43701;BME280;58809;47.984;7.964;2023-04-01T01:10:38;96102.56;;;13.46;63.94
43701;BME280;58809;47.984;7.964;2023-04-01T01:13:50;96104.66;;;13.25;63.72
43701;BME280;58809;47.984;7.964;2023-04-01T01:16:59;96108.03;;;13.02;65.24
43701;BME280;58809;47.984;7.964;2023-04-01T01:30:11;96098.13;;;12.73;67.82
43701;BME280;58809;47.984;7.964;2023-04-01T01:33:30;96085.47;;;12.93;67.42
43701;BME280;58809;47.984;7.964;2023-04-01T01:36:37;96085.91;;;12.71;68.18
43701;BME280;58809;47.984;7.964;2023-04-01T01:39:46;96088.78;;;12.70;67.53
43701;BME280;58809;47.984;7.964;2023-04-01T01:42:52;96106.78;;;12.86;67.96
43701;BME280;58809;47.984;7.964;2023-04-01T01:45:57;96110.97;;;12.94;67.42
43701;BME280;58809;47.984;7.964;2023-04-01T01:49:02;96096.81;;;12.82;67.16
43701;BME280;58809;47.984;7.964;2023-04-01T01:52:04;96088.47;;;12.78;67.16
43701;BME280;58809;47.984;7.964;2023-04-01T01:55:24;96115.16;;;13.02;65.80
43701;BME280;58809;47.984;7.964;2023-04-01T01:58:34;96093.19;;;12.95;65.75
43701;BME280;58809;47.984;7.964;2023-04-01T02:01:46;96076.13;;;13.21;65.57
43701;BME280;58809;47.984;7.964;2023-04-01T02:04:50;96101.25;;;13.18;64.88
43701;BME280;58809;47.984;7.964;2023-04-01T02:08:06;96110.72;;;13.14;64.38
43701;BME280;58809;47.984;7.964;2023-04-01T02:11:11;96114.69;;;13.23;64.20
43701;BME280;58809;47.984;7.964;2023-04-01T02:14:18;96116.38;;;13.36;63.59
43701;BME280;58809;47.984;7.964;2023-04-01T02:17:23;96110.84;;;13.38;63.18
43701;BME280;58809;47.984;7.964;2023-04-01T02:20:28;96098.88;;;13.28;63.24
43701;BME280;58809;47.984;7.964;2023-04-01T02:23:33;96111.66;;;13.38;63.27
43701;BME280;58809;47.984;7.964;2023-04-01T02:26:36;96150.03;;;13.24;63.25
43701;BME280;58809;47.984;7.964;2023-04-01T02:29:38;96102.56;;;12.97;63.77
43701;BME280;58809;47.984;7.964;2023-04-01T02:32:44;96109.84;;;13.02;64.87
43701;BME280;58809;47.984;7.964;2023-04-01T02:35:46;96112.81;;;12.94;65.54
43701;BME280;58809;47.984;7.964;2023-04-01T02:38:49;96107.75;;;12.74;66.12
43701;BME280;58809;47.984;7.964;2023-04-01T02:41:53;96119.25;;;12.86;66.31
43701;BME280;58809;47.984;7.964;2023-04-01T02:44:54;96116.84;;;12.96;66.37
43701;BME280;58809;47.984;7.964;2023-04-01T02:47:56;96113.91;;;13.04;66.61
43701;BME280;58809;47.984;7.964;2023-04-01T02:50:57;96136.72;;;12.94;66.10
43701;BME280;58809;47.984;7.964;2023-04-01T02:53:59;96121.00;;;12.74;66.34
43701;BME280;58809;47.984;7.964;2023-04-01T02:57:00;96107.06;;;12.60;67.12
43701;BME280;58809;47.984;7.964;2023-04-01T03:00:03;96122.81;;;12.36;68.13
43701;BME280;58809;47.984;7.964;2023-04-01T03:03:04;96097.22;;;12.42;68.08
43701;BME280;58809;47.984;7.964;2023-04-01T03:06:08;96102.59;;;12.60;68.87
43701;BME280;58809;47.984;7.964;2023-04-01T03:09:11;96124.09;;;12.27;68.72
43701;BME280;58809;47.984;7.964;2023-04-01T03:12:12;96108.09;;;12.40;69.58
43701;BME280;58809;47.984;7.964;2023-04-01T03:15:23;96105.22;;;12.60;69.20
43701;BME280;58809;47.984;7.964;2023-04-01T03:18:24;96113.63;;;12.57;69.02
43701;BME280;58809;47.984;7.964;2023-04-01T03:21:26;96117.66;;;12.41;69.72
43701;BME280;58809;47.984;7.964;2023-04-01T03:24:28;96109.63;;;12.48;69.77
43701;BME280;58809;47.984;7.964;2023-04-01T03:27:29;96132.78;;;12.16;70.34
43701;BME280;58809;47.984;7.964;2023-04-01T03:30:31;96121.91;;;12.24;69.85
43701;BME280;58809;47.984;7.964;2023-04-01T03:33:33;96133.25;;;12.12;70.15
43701;BME280;58809;47.984;7.964;2023-04-01T03:36:34;96131.94;;;11.97;70.37
43701;BME280;58809;47.984;7.964;2023-04-01T03:39:36;96145.13;;;12.28;69.16
43701;BME280;58809;47.984;7.964;2023-04-01T03:42:38;96129.06;;;12.42;68.57
43701;BME280;58809;47.984;7.964;2023-04-01T03:45:47;96135.72;;;12.07;67.88
43701;BME280;58809;47.984;7.964;2023-04-01T03:48:48;96153.88;;;12.29;67.85
43701;BME280;58809;47.984;7.964;2023-04-01T03:51:50;96134.41;;;12.17;67.81
43701;BME280;58809;47.984;7.964;2023-04-01T03:54:52;96133.53;;;12.23;67.73
43701;BME280;58809;47.984;7.964;2023-04-01T03:57:53;96126.78;;;12.45;67.10
43701;BME280;58809;47.984;7.964;2023-04-01T04:00:55;96107.16;;;12.53;66.77
43701;BME280;58809;47.984;7.964;2023-04-01T04:03:57;96115.88;;;12.35;66.62
43701;BME280;58809;47.984;7.964;2023-04-01T04:06:59;96114.19;;;12.41;66.25
43701;BME280;58809;47.984;7.964;2023-04-01T04:10:03;96097.72;;;12.57;66.01
43701;BME280;58809;47.984;7.964;2023-04-01T04:13:05;96107.34;;;12.88;65.44
43701;BME280;58809;47.984;7.964;2023-04-01T04:16:11;96113.69;;;12.87;65.13
43701;BME280;58809;47.984;7.964;2023-04-01T04:19:17;96115.91;;;12.90;65.68
43701;BME280;58809;47.984;7.964;2023-04-01T04:22:19;96114.06;;;12.73;64.38
43701;BME280;58809;47.984;7.964;2023-04-01T04:25:21;96112.34;;;12.97;63.82
43701;BME280;58809;47.984;7.964;2023-04-01T04:28:22;96097.44;;;13.14;64.02
43701;BME280;58809;47.984;7.964;2023-04-01T04:31:25;96102.34;;;13.29;63.38
43701;BME280;58809;47.984;7.964;2023-04-01T04:34:29;96105.25;;;13.09;63.68
43701;BME280;58809;47.984;7.964;2023-04-01T04:37:30;96114.47;;;13.25;63.02
43701;BME280;58809;47.984;7.964;2023-04-01T04:40:32;96105.69;;;13.24;63.32
43701;BME280;58809;47.984;7.964;2023-04-01T04:43:33;96121.38;;;12.96;63.48
43701;BME280;58809;47.984;7.964;2023-04-01T04:46:35;96100.84;;;13.03;63.84
43701;BME280;58809;47.984;7.964;2023-04-01T04:49:45;96082.50;;;12.83;64.11
43701;BME280;58809;47.984;7.964;2023-04-01T04:52:47;96105.13;;;12.85;64.19
43701;BME280;58809;47.984;7.964;2023-04-01T04:55:49;96099.69;;;12.99;64.28
43701;BME280;58809;47.984;7.964;2023-04-01T04:59:03;96081.00;;;13.05;64.62
43701;BME280;58809;47.984;7.964;2023-04-01T05:02:15;96122.66;;;13.23;63.85
43701;BME280;58809;47.984;7.964;2023-04-01T05:05:16;96086.38;;;13.47;63.09
43701;BME280;58809;47.984;7.964;2023-04-01T05:08:18;96095.28;;;13.53;62.22
43701;BME280;58809;47.984;7.964;2023-04-01T05:11:20;96102.44;;;13.41;62.13
43701;BME280;58809;47.984;7.964;2023-04-01T05:14:23;96078.91;;;13.56;62.30
43701;BME280;58809;47.984;7.964;2023-04-01T05:17:34;96081.56;;;13.56;62.04
43701;BME280;58809;47.984;7.964;2023-04-01T05:20:37;96083.06;;;13.64;61.45
43701;BME280;58809;47.984;7.964;2023-04-01T05:23:39;96088.16;;;13.65;61.47
43701;BME280;58809;47.984;7.964;2023-04-01T05:26:40;96073.47;;;13.51;61.54
43701;BME280;58809;47.984;7.964;2023-04-01T05:29:42;96084.84;;;13.70;61.79
43701;BME280;58809;47.984;7.964;2023-04-01T05:32:59;96081.94;;;13.72;60.72
43701;BME280;58809;47.984;7.964;2023-04-01T05:36:12;96075.59;;;13.84;61.06
43701;BME280;58809;47.984;7.964;2023-04-01T05:39:14;96084.94;;;13.63;60.71
43701;BME280;58809;47.984;7.964;2023-04-01T05:42:17;96078.16;;;13.79;60.89
43701;BME280;58809;47.984;7.964;2023-04-01T05:45:18;96091.09;;;13.76;60.51
43701;BME280;58809;47.984;7.964;2023-04-01T05:48:23;96072.66;;;13.62;59.94
43701;BME280;58809;47.984;7.964;2023-04-01T05:51:25;96091.47;;;13.91;59.97
43701;BME280;58809;47.984;7.964;2023-04-01T05:54:26;96068.94;;;14.05;59.83
43701;BME280;58809;47.984;7.964;2023-04-01T05:57:28;96088.59;;;14.16;60.12
43701;BME280;58809;47.984;7.964;2023-04-01T06:00:29;96086.97;;;14.03;60.02
43701;BME280;58809;47.984;7.964;2023-04-01T06:03:33;96083.84;;;14.30;60.07
43701;BME280;58809;47.984;7.964;2023-04-01T06:06:36;96088.00;;;14.50;59.75
43701;BME280;58809;47.984;7.964;2023-04-01T06:09:43;96078.72;;;14.52;60.18
43701;BME280;58809;47.984;7.964;2023-04-01T06:13:06;96076.53;;;14.37;58.88
43701;BME280;58809;47.984;7.964;2023-04-01T06:20:20;96078.75;;;14.40;58.91
43701;BME280;58809;47.984;7.964;2023-04-01T06:27:54;96057.72;;;14.27;58.44
43701;BME280;58809;47.984;7.964;2023-04-01T06:30:32;96069.84;;;14.23;58.82
43701;BME280;58809;47.984;7.964;2023-04-01T06:40:30;96053.63;;;14.48;57.69
43701;BME280;58809;47.984;7.964;2023-04-01T06:44:06;96073.44;;;14.29;58.69
43701;BME280;58809;47.984;7.964;2023-04-01T06:47:42;96059.56;;;14.38;58.56
43701;BME280;58809;47.984;7.964;2023-04-01T06:51:44;96070.75;;;14.52;58.04
43701;BME280;58809;47.984;7.964;2023-04-01T06:55:37;96073.31;;;14.59;57.22
43701;BME280;58809;47.984;7.964;2023-04-01T06:59:08;96071.09;;;14.32;56.76
43701;BME280;58809;47.984;7.964;2023-04-01T07:02:43;96059.78;;;14.60;56.48
43701;BME280;58809;47.984;7.964;2023-04-01T07:05:47;96050.09;;;14.83;57.55
43701;BME280;58809;47.984;7.964;2023-04-01T07:08:51;96059.44;;;14.97;57.84
43701;BME280;58809;47.984;7.964;2023-04-01T07:12:00;96045.13;;;14.87;57.04
43701;BME280;58809;47.984;7.964;2023-04-01T07:15:33;96068.13;;;15.05;56.44
43701;BME280;58809;47.984;7.964;2023-04-01T07:21:51;96047.34;;;14.78;56.86
43701;BME280;58809;47.984;7.964;2023-04-01T07:25:15;96083.06;;;15.06;56.60
43701;BME280;58809;47.984;7.964;2023-04-01T07:28:23;96065.63;;;15.44;55.17
43701;BME280;58809;47.984;7.964;2023-04-01T07:35:30;96064.09;;;16.10;53.72
43701;BME280;58809;47.984;7.964;2023-04-01T07:39:08;96071.28;;;16.27;54.03
43701;BME280;58809;47.984;7.964;2023-04-01T07:46:38;96079.22;;;16.05;53.26
43701;BME280;58809;47.984;7.964;2023-04-01T07:49:58;96085.28;;;16.00;52.94
43701;BME280;58809;47.984;7.964;2023-04-01T08:00:24;96096.81;;;15.43;54.99
43701;BME280;58809;47.984;7.964;2023-04-01T08:03:52;96081.84;;;15.42;55.15
43701;BME280;58809;47.984;7.964;2023-04-01T08:14:14;96122.88;;;15.12;55.95
43701;BME280;58809;47.984;7.964;2023-04-01T08:21:13;96097.09;;;15.30;54.93
43701;BME280;58809;47.984;7.964;2023-04-01T08:24:39;96097.22;;;15.81;53.48
43701;BME280;58809;47.984;7.964;2023-04-01T08:28:19;96091.41;;;15.55;53.55
43701;BME280;58809;47.984;7.964;2023-04-01T08:31:37;96109.44;;;15.48;54.90
43701;BME280;58809;47.984;7.964;2023-04-01T08:34:45;96104.56;;;15.73;54.98
43701;BME280;58809;47.984;7.964;2023-04-01T08:38:01;96114.91;;;15.41;54.46
43701;BME280;58809;47.984;7.964;2023-04-01T08:41:21;96108.50;;;15.42;54.66
43701;BME280;58809;47.984;7.964;2023-04-01T08:45:10;96131.19;;;15.85;54.63
43701;BME280;58809;47.984;7.964;2023-04-01T08:52:16;96141.06;;;16.02;53.54
43701;BME280;58809;47.984;7.964;2023-04-01T08:55:29;96120.41;;;15.80;53.46
43701;BME280;58809;47.984;7.964;2023-04-01T09:02:30;96136.22;;;16.15;53.47
43701;BME280;58809;47.984;7.964;2023-04-01T09:06:20;96119.31;;;16.27;52.90
43701;BME280;58809;47.984;7.964;2023-04-01T09:15:55;96109.69;;;16.82;53.37
43701;BME280;58809;47.984;7.964;2023-04-01T09:22:32;96130.81;;;16.10;53.52
43701;BME280;58809;47.984;7.964;2023-04-01T09:25:46;96150.84;;;16.47;53.24
43701;BME280;58809;47.984;7.964;2023-04-01T09:29:24;96130.78;;;16.44;52.14
43701;BME280;58809;47.984;7.964;2023-04-01T09:36:07;96131.47;;;16.73;52.86
43701;BME280;58809;47.984;7.964;2023-04-01T09:42:41;96174.53;;;15.92;55.43
43701;BME280;58809;47.984;7.964;2023-04-01T09:49:26;96153.34;;;15.45;57.57
43701;BME280;58809;47.984;7.964;2023-04-01T09:52:55;96172.81;;;15.05;58.18
43701;BME280;58809;47.984;7.964;2023-04-01T09:56:23;96151.31;;;15.35;58.79
43701;BME280;58809;47.984;7.964;2023-04-01T09:59:35;96159.59;;;15.51;58.78
43701;BME280;58809;47.984;7.964;2023-04-01T10:07:15;96157.78;;;15.68;57.00
43701;BME280;58809;47.984;7.964;2023-04-01T10:10:47;96153.19;;;16.09;55.50
43701;BME280;58809;47.984;7.964;2023-04-01T10:14:36;96224.44;;;15.39;56.15
43701;BME280;58809;47.984;7.964;2023-04-01T10:34:29;96157.06;;;16.69;53.55
43701;BME280;58809;47.984;7.964;2023-04-01T10:55:59;96222.75;;;16.03;51.97
43701;BME280;58809;47.984;7.964;2023-04-01T11:07:22;96171.19;;;16.87;52.50
43701;BME280;58809;47.984;7.964;2023-04-01T11:17:52;96180.22;;;16.47;52.20
43701;BME280;58809;47.984;7.964;2023-04-01T11:32:02;96190.88;;;16.81;52.30
43701;BME280;58809;47.984;7.964;2023-04-01T11:42:33;96215.97;;;16.12;54.56
43701;BME280;58809;47.984;7.964;2023-04-01T11:46:10;96217.00;;;15.82;56.34
43701;BME280;58809;47.984;7.964;2023-04-01T11:53:20;96215.75;;;15.85;56.10
43701;BME280;58809;47.984;7.964;2023-04-01T12:06:56;96205.22;;;16.41;53.78
43701;BME280;58809;47.984;7.964;2023-04-01T12:10:33;96224.16;;;16.73;52.73
43701;BME280;58809;47.984;7.964;2023-04-01T12:13:49;96214.50;;;17.06;54.04
43701;BME280;58809;47.984;7.964;2023-04-01T12:17:03;96228.03;;;16.82;53.55
43701;BME280;58809;47.984;7.964;2023-04-01T12:24:06;96208.84;;;16.51;52.88
43701;BME280;58809;47.984;7.964;2023-04-01T12:27:31;96236.19;;;16.25;52.69
43701;BME280;58809;47.984;7.964;2023-04-01T12:41:02;96215.00;;;16.69;52.78
43701;BME280;58809;47.984;7.964;2023-04-01T12:44:07;96214.66;;;16.31;53.31
43701;BME280;58809;47.984;7.964;2023-04-01T13:04:56;96216.28;;;16.66;53.83
43701;BME280;58809;47.984;7.964;2023-04-01T13:08:12;96209.75;;;16.91;54.06
43701;BME280;58809;47.984;7.964;2023-04-01T13:11:22;96195.47;;;17.02;53.54
43701;BME280;58809;47.984;7.964;2023-04-01T13:24:16;96231.75;;;17.37;52.37
43701;BME280;58809;47.984;7.964;2023-04-01T13:27:29;96212.41;;;17.30;51.94
43701;BME280;58809;47.984;7.964;2023-04-01T13:30:41;96224.78;;;17.36;51.40
43701;BME280;58809;47.984;7.964;2023-04-01T13:44:16;96208.06;;;17.46;50.67
43701;BME280;58809;47.984;7.964;2023-04-01T13:54:09;96207.59;;;17.76;51.88
43701;BME280;58809;47.984;7.964;2023-04-01T14:01:06;96200.72;;;18.07;50.26
43701;BME280;58809;47.984;7.964;2023-04-01T14:11:17;96182.19;;;18.33;48.07
43701;BME280;58809;47.984;7.964;2023-04-01T14:14:51;96174.44;;;18.69;49.67
43701;BME280;58809;47.984;7.964;2023-04-01T14:21:29;96166.13;;;19.81;48.43
43701;BME280;58809;47.984;7.964;2023-04-01T14:31:34;96158.84;;;18.98;47.73
43701;BME280;58809;47.984;7.964;2023-04-01T14:48:13;96208.38;;;14.99;60.91
43701;BME280;58809;47.984;7.964;2023-04-01T14:51:23;96201.81;;;15.42;60.45
43701;BME280;58809;47.984;7.964;2023-04-01T14:54:32;96215.47;;;16.15;59.97
43701;BME280;58809;47.984;7.964;2023-04-01T14:57:37;96201.47;;;16.75;59.47
43701;BME280;58809;47.984;7.964;2023-04-01T15:00:48;96214.69;;;17.21;58.13
43701;BME280;58809;47.984;7.964;2023-04-01T15:14:29;96199.69;;;18.78;52.48
43701;BME280;58809;47.984;7.964;2023-04-01T15:17:43;96196.00;;;18.84;53.84
43701;BME280;58809;47.984;7.964;2023-04-01T15:24:20;96197.44;;;19.02;51.52
43701;BME280;58809;47.984;7.964;2023-04-01T15:27:37;96207.75;;;19.26;52.06
43701;BME280;58809;47.984;7.964;2023-04-01T15:37:20;96212.91;;;18.85;50.85
43701;BME280;58809;47.984;7.964;2023-04-01T15:40:43;96211.34;;;17.97;49.26
43701;BME280;58809;47.984;7.964;2023-04-01T15:43:48;96211.38;;;17.80;52.17
43701;BME280;58809;47.984;7.964;2023-04-01T15:46:51;96215.22;;;17.18;52.64
43701;BME280;58809;47.984;7.964;2023-04-01T15:53:51;96210.31;;;16.93;52.24
43701;BME280;58809;47.984;7.964;2023-04-01T15:57:16;96219.69;;;16.79;52.46
43701;BME280;58809;47.984;7.964;2023-04-01T16:00:31;96209.75;;;16.91;53.61
43701;BME280;58809;47.984;7.964;2023-04-01T16:07:02;96219.94;;;16.60;53.09
43701;BME280;58809;47.984;7.964;2023-04-01T16:23:20;96220.13;;;19.27;50.72
43701;BME280;58809;47.984;7.964;2023-04-01T16:29:46;96226.78;;;18.50;50.62
43701;BME280;58809;47.984;7.964;2023-04-01T16:33:13;96228.59;;;17.62;50.95
43701;BME280;58809;47.984;7.964;2023-04-01T16:36:39;96233.72;;;17.25;52.35
43701;BME280;58809;47.984;7.964;2023-04-01T16:39:54;96238.78;;;17.04;52.03
43701;BME280;58809;47.984;7.964;2023-04-01T16:43:13;96241.88;;;16.79;52.46
43701;BME280;58809;47.984;7.964;2023-04-01T16:49:36;96240.28;;;16.95;53.56
43701;BME280;58809;47.984;7.964;2023-04-01T16:53:09;96240.31;;;17.17;52.44
43701;BME280;58809;47.984;7.964;2023-04-01T16:56:18;96246.84;;;17.26;53.38
43701;BME280;58809;47.984;7.964;2023-04-01T16:59:38;96245.34;;;17.13;53.69
43701;BME280;58809;47.984;7.964;2023-04-01T17:02:54;96243.41;;;17.09;53.29
43701;BME280;58809;47.984;7.964;2023-04-01T17:06:12;96251.13;;;16.88;54.07
43701;BME280;58809;47.984;7.964;2023-04-01T17:09:49;96248.59;;;16.82;52.56
43701;BME280;58809;47.984;7.964;2023-04-01T17:16:28;96240.22;;;17.12;53.78
43701;BME280;58809;47.984;7.964;2023-04-01T17:26:31;96243.03;;;20.39;48.62
43701;BME280;58809;47.984;7.964;2023-04-01T17:30:11;96251.03;;;18.92;49.30
43701;BME280;58809;47.984;7.964;2023-04-01T17:33:23;96259.03;;;18.60;52.04
43701;BME280;58809;47.984;7.964;2023-04-01T17:39:55;96256.97;;;17.85;52.87
43701;BME280;58809;47.984;7.964;2023-04-01T17:43:14;96265.91;;;17.74;53.00
43701;BME280;58809;47.984;7.964;2023-04-01T17:49:56;96265.34;;;16.60;51.69
43701;BME280;58809;47.984;7.964;2023-04-01T17:53:22;96261.13;;;16.47;53.52
43701;BME280;58809;47.984;7.964;2023-04-01T17:59:51;96256.22;;;16.10;53.14
43701;BME280;58809;47.984;7.964;2023-04-01T18:03:09;96263.69;;;15.96;53.62
43701;BME280;58809;47.984;7.964;2023-04-01T18:19:30;96278.53;;;15.40;55.45
43701;BME280;58809;47.984;7.964;2023-04-01T18:25:47;96290.25;;;15.27;55.98
43701;BME280;58809;47.984;7.964;2023-04-01T18:28:56;96294.31;;;15.18;55.80
43701;BME280;58809;47.984;7.964;2023-04-01T18:32:23;96293.63;;;15.23;55.89
43701;BME280;58809;47.984;7.964;2023-04-01T18:39:04;96310.66;;;15.33;55.86
43701;BME280;58809;47.984;7.964;2023-04-01T18:46:17;96310.78;;;15.27;55.81
43701;BME280;58809;47.984;7.964;2023-04-01T18:52:45;96324.47;;;15.18;54.42
43701;BME280;58809;47.984;7.964;2023-04-01T18:55:55;96330.34;;;15.32;56.70
43701;BME280;58809;47.984;7.964;2023-04-01T19:02:29;96334.53;;;15.16;56.13
43701;BME280;58809;47.984;7.964;2023-04-01T19:05:35;96334.53;;;15.05;56.40
43701;BME280;58809;47.984;7.964;2023-04-01T19:08:40;96339.38;;;14.96;57.04
43701;BME280;58809;47.984;7.964;2023-04-01T19:21:58;96348.38;;;14.83;56.24
43701;BME280;58809;47.984;7.964;2023-04-01T19:28:51;96345.06;;;14.88;55.95
43701;BME280;58809;47.984;7.964;2023-04-01T19:39:00;96353.22;;;14.14;58.17
43701;BME280;58809;47.984;7.964;2023-04-01T19:42:18;96354.28;;;13.94;58.92
43701;BME280;58809;47.984;7.964;2023-04-01T19:45:41;96351.72;;;13.88;59.16
43701;BME280;58809;47.984;7.964;2023-04-01T19:49:19;96354.06;;;13.77;59.44
43701;BME280;58809;47.984;7.964;2023-04-01T19:52:45;96365.75;;;13.76;59.73
43701;BME280;58809;47.984;7.964;2023-04-01T19:55:58;96371.34;;;13.68;59.55
43701;BME280;58809;47.984;7.964;2023-04-01T19:59:22;96374.94;;;13.55;60.06
43701;BME280;58809;47.984;7.964;2023-04-01T20:05:50;96378.50;;;13.49;60.35
43701;BME280;58809;47.984;7.964;2023-04-01T20:12:32;96375.19;;;13.54;59.91
43701;BME280;58809;47.984;7.964;2023-04-01T20:15:54;96386.03;;;13.52;59.81
43701;BME280;58809;47.984;7.964;2023-04-01T20:19:01;96381.31;;;13.29;60.02
43701;BME280;58809;47.984;7.964;2023-04-01T20:22:23;96387.13;;;13.19;60.16
43701;BME280;58809;47.984;7.964;2023-04-01T20:25:41;96390.41;;;13.15;60.25
43701;BME280;58809;47.984;7.964;2023-04-01T20:35:50;96397.94;;;12.93;60.73
43701;BME280;58809;47.984;7.964;2023-04-01T20:45:30;96407.69;;;13.31;60.64
43701;BME280;58809;47.984;7.964;2023-04-01T20:55:27;96407.47;;;13.76;59.72
43701;BME280;58809;47.984;7.964;2023-04-01T20:58:50;96417.00;;;14.02;59.43
43701;BME280;58809;47.984;7.964;2023-04-01T21:05:47;96413.56;;;14.50;57.69
43701;BME280;58809;47.984;7.964;2023-04-01T21:09:29;96416.53;;;14.60;56.23
43701;BME280;58809;47.984;7.964;2023-04-01T21:16:03;96422.16;;;14.82;56.64
43701;BME280;58809;47.984;7.964;2023-04-01T21:19:25;96428.19;;;14.90;55.89
43701;BME280;58809;47.984;7.964;2023-04-01T21:36:24;96426.91;;;14.80;55.86
43701;BME280;58809;47.984;7.964;2023-04-01T21:39:42;96433.25;;;14.79;56.28
43701;BME280;58809;47.984;7.964;2023-04-01T22:06:38;96447.88;;;14.89;56.05
43701;BME280;58809;47.984;7.964;2023-04-01T22:09:52;96444.63;;;14.87;55.89
43701;BME280;58809;47.984;7.964;2023-04-01T22:13:04;96450.31;;;14.90;55.97
43701;BME280;58809;47.984;7.964;2023-04-01T22:23:29;96453.97;;;14.77;55.95
43701;BME280;58809;47.984;7.964;2023-04-01T22:26:38;96450.66;;;14.82;55.75
43701;BME280;58809;47.984;7.964;2023-04-01T22:30:03;96455.25;;;14.75;55.89
43701;BME280;58809;47.984;7.964;2023-04-01T22:33:23;96457.38;;;14.85;55.79
43701;BME280;58809;47.984;7.964;2023-04-01T22:36:42;96464.78;;;14.82;55.67
43701;BME280;58809;47.984;7.964;2023-04-01T22:40:00;96465.56;;;14.83;55.97
43701;BME280;58809;47.984;7.964;2023-04-01T22:43:11;96480.03;;;14.75;55.96
43701;BME280;58809;47.984;7.964;2023-04-01T22:49:41;96473.25;;;14.91;55.45
43701;BME280;58809;47.984;7.964;2023-04-01T22:52:52;96471.63;;;14.90;55.43
43701;BME280;58809;47.984;7.964;2023-04-01T22:56:00;96482.97;;;14.86;55.58
43701;BME280;58809;47.984;7.964;2023-04-01T22:59:24;96472.56;;;14.96;55.66
43701;BME280;58809;47.984;7.964;2023-04-01T23:02:36;96475.06;;;15.09;55.22
43701;BME280;58809;47.984;7.964;2023-04-01T23:05:51;96466.00;;;15.10;55.07
43701;BME280;58809;47.984;7.964;2023-04-01T23:09:02;96474.28;;;15.20;54.98
43701;BME280;58809;47.984;7.964;2023-04-01T23:12:09;96468.59;;;15.17;55.10
43701;BME280;58809;47.984;7.964;2023-04-01T23:15:14;96478.91;;;15.25;54.78
43701;BME280;58809;47.984;7.964;2023-04-01T23:18:30;96485.38;;;15.17;55.06
43701;BME280;58809;47.984;7.964;2023-04-01T23:22:03;96477.84;;;15.14;55.05
43701;BME280;58809;47.984;7.964;2023-04-01T23:28:50;96500.72;;;15.22;55.32
43701;BME280;58809;47.984;7.964;2023-04-01T23:32:00;96497.19;;;15.10;55.37
43701;BME280;58809;47.984;7.964;2023-04-01T23:35:02;96505.44;;;15.20;55.29
43701;BME280;58809;47.984;7.964;2023-04-01T23:38:04;96505.44;;;15.20;55.31
43701;BME280;58809;47.984;7.964;2023-04-01T23:41:06;96499.66;;;15.23;55.27
43701;BME280;58809;47.984;7.964;2023-04-01T23:44:11;96499.28;;;15.19;55.23
43701;BME280;58809;47.984;7.964;2023-04-01T23:47:17;96498.84;;;15.23;55.24
43701;BME280;58809;47.984;7.964;2023-04-01T23:50:23;96494.66;;;15.15;55.11
43701;BME280;58809;47.984;7.964;2023-04-01T23:53:28;96498.22;;;15.09;55.23
43701;BME280;58809;47.984;7.964;2023-04-01T23:56:52;96501.16;;;15.19;55.19
